createdAt,value
2023-01-17T00:08:07.891Z,2.06
2023-01-17T00:15:33.907Z,2.07
2023-01-17T00:20:48.114Z,2.09
2023-01-17T00:23:05.635Z,2.12
2023-01-17T00:27:00.525Z,2.14
2023-01-17T00:42:29.052Z,2.23
2023-01-17T00:45:18.998Z,2.25
2023-01-17T00:48:06.992Z,2.28
2023-01-17T00:50:56.400Z,2.30
2023-01-17T00:53:44.672Z,2.33
2023-01-17T00:56:35.427Z,2.33
2023-01-17T00:59:28.277Z,2.32
2023-01-17T01:02:20.289Z,2.34
2023-01-17T01:05:11.553Z,2.36
2023-01-17T01:08:02.611Z,2.38
2023-01-17T01:10:57.999Z,2.40
2023-01-17T01:13:49.809Z,2.40
2023-01-17T01:16:41.904Z,2.39
2023-01-17T01:19:34.029Z,2.40
2023-01-17T01:22:27.097Z,2.43
2023-01-17T01:25:24.234Z,2.43
2023-01-17T01:28:30.786Z,2.42
2023-01-17T01:31:24.841Z,2.42
2023-01-17T01:33:58.346Z,2.40
2023-01-17T01:36:34.180Z,2.41
2023-01-17T01:39:07.859Z,2.44
2023-01-17T01:41:43.750Z,2.44
2023-01-17T01:45:11.361Z,2.43
2023-01-17T01:47:44.569Z,2.44
2023-01-17T01:50:21.493Z,2.45
2023-01-17T01:52:56.297Z,2.44
2023-01-17T01:55:31.636Z,2.46
2023-01-17T01:58:06.773Z,2.48
2023-01-17T02:00:38.389Z,2.46
2023-01-17T02:03:13.136Z,2.45
2023-01-17T02:05:43.889Z,2.44
2023-01-17T02:08:45.268Z,2.44
2023-01-17T02:14:57.372Z,2.44
2023-01-17T02:17:57.470Z,2.45
2023-01-17T02:20:29.154Z,2.44
2023-01-17T02:23:44.586Z,2.44
2023-01-17T02:27:02.757Z,2.46
2023-01-17T02:29:50.206Z,2.47
2023-01-17T02:33:03.037Z,2.47
2023-01-17T02:35:38.507Z,2.48
2023-01-17T02:38:42.095Z,2.48
2023-01-17T02:41:20.689Z,2.49
2023-01-17T02:43:54.624Z,2.50
2023-01-17T02:46:23.901Z,2.48
2023-01-17T02:48:54.389Z,2.47
2023-01-17T02:51:29.992Z,2.47
2023-01-17T02:54:25.084Z,2.47
2023-01-17T02:57:11.799Z,2.47
2023-01-17T02:59:56.121Z,2.46
2023-01-17T03:02:29.075Z,2.44
2023-01-17T03:05:45.727Z,2.42
2023-01-17T03:08:16.405Z,2.41
2023-01-17T03:10:46.272Z,2.40
2023-01-17T03:13:16.106Z,2.41
2023-01-17T03:15:44.642Z,2.41
2023-01-17T03:18:17.398Z,2.38
2023-01-17T03:20:47.275Z,2.36
2023-01-17T03:23:15.848Z,2.36
2023-01-17T03:25:45.007Z,2.36
2023-01-17T03:28:13.693Z,2.37
2023-01-17T03:30:43.044Z,2.38
2023-01-17T03:33:11.713Z,2.37
2023-01-17T03:35:40.536Z,2.36
2023-01-17T03:38:09.588Z,2.36
2023-01-17T03:40:41.165Z,2.37
2023-01-17T03:43:12.568Z,2.38
2023-01-17T03:45:47.851Z,2.40
2023-01-17T03:48:34.595Z,2.39
2023-01-17T03:51:19.689Z,2.39
2023-01-17T03:53:52.931Z,2.37
2023-01-17T03:56:26.127Z,2.38
2023-01-17T03:58:59.697Z,2.39
2023-01-17T04:01:31.281Z,2.38
2023-01-17T04:04:02.181Z,2.39
2023-01-17T04:06:33.069Z,2.37
2023-01-17T04:09:04.437Z,2.35
2023-01-17T04:11:35.486Z,2.32
2023-01-17T04:14:04.880Z,2.33
2023-01-17T04:16:34.272Z,2.33
2023-01-17T04:19:03.557Z,2.34
2023-01-17T04:21:33.474Z,2.30
2023-01-17T04:24:04.423Z,2.28
2023-01-17T04:26:34.433Z,2.28
2023-01-17T04:29:04.419Z,2.28
2023-01-17T04:31:34.904Z,2.29
2023-01-17T04:34:04.617Z,2.27
2023-01-17T04:36:35.089Z,2.28
2023-01-17T04:39:05.402Z,2.29
2023-01-17T04:41:36.200Z,2.29
2023-01-17T04:44:06.724Z,2.31
2023-01-17T04:46:38.854Z,2.28
2023-01-17T04:49:09.964Z,2.27
2023-01-17T04:51:43.047Z,2.27
2023-01-17T04:54:14.473Z,2.27
2023-01-17T04:56:44.774Z,2.27
2023-01-17T04:59:16.229Z,2.27
2023-01-17T05:01:46.578Z,2.23
2023-01-17T05:04:17.278Z,2.19
2023-01-17T05:06:48.214Z,2.17
2023-01-17T05:09:18.352Z,2.15
2023-01-17T05:11:53.451Z,2.14
2023-01-17T05:14:28.978Z,2.13
2023-01-17T05:17:04.294Z,2.10
2023-01-17T05:19:48.074Z,2.07
2023-01-17T05:25:32.975Z,2.07
2023-01-17T05:28:12.178Z,2.07
2023-01-17T05:30:45.720Z,2.07
2023-01-17T05:33:14.688Z,2.06
2023-01-17T05:35:43.894Z,2.06
2023-01-17T05:38:13.426Z,2.07
2023-01-17T05:40:43.442Z,2.07
2023-01-17T05:43:16.508Z,2.07
2023-01-17T05:45:49.962Z,2.07
2023-01-17T05:48:19.404Z,2.07
2023-01-17T05:50:47.837Z,2.03
2023-01-17T05:53:16.814Z,2.02
2023-01-17T05:55:45.582Z,2.01
2023-01-17T05:58:22.780Z,2.01
2023-01-17T06:00:51.163Z,2.00
2023-01-17T06:03:18.702Z,1.99
2023-01-17T06:05:47.243Z,1.98
2023-01-17T06:08:15.758Z,1.96
2023-01-17T06:10:44.221Z,1.95
2023-01-17T06:13:20.453Z,1.95
2023-01-17T06:15:48.136Z,1.94
2023-01-17T06:18:18.030Z,1.94
2023-01-17T06:20:46.333Z,1.93
2023-01-17T06:23:19.551Z,1.94
2023-01-17T06:25:48.189Z,1.89
2023-01-17T06:28:21.809Z,1.84
2023-01-17T06:30:54.729Z,1.81
2023-01-17T06:33:23.766Z,1.77
2023-01-17T06:35:53.522Z,1.74
2023-01-17T06:38:25.357Z,1.68
2023-01-17T06:40:56.417Z,1.63
2023-01-17T06:43:25.642Z,1.58
2023-01-17T06:45:56.097Z,1.55
2023-01-17T06:48:24.455Z,1.51
2023-01-17T06:50:52.566Z,1.49
2023-01-17T06:53:23.656Z,1.46
2023-01-17T06:55:57.199Z,1.41
2023-01-17T06:58:25.493Z,1.36
2023-01-17T07:00:53.077Z,1.34
2023-01-17T07:03:24.158Z,1.34
2023-01-17T07:05:52.880Z,1.35
2023-01-17T07:08:21.109Z,1.33
2023-01-17T07:10:49.391Z,1.31
2023-01-17T07:13:17.901Z,1.34
2023-01-17T07:15:47.285Z,1.34
2023-01-17T07:18:20.364Z,1.33
2023-01-17T07:20:50.391Z,1.33
2023-01-17T07:23:19.036Z,1.33
2023-01-17T07:25:55.339Z,1.31
2023-01-17T07:28:24.995Z,1.28
2023-01-17T07:30:54.534Z,1.27
2023-01-17T07:33:26.605Z,1.27
2023-01-17T07:36:11.864Z,1.29
2023-01-17T07:38:56.668Z,1.30
2023-01-17T07:41:33.915Z,1.32
2023-01-17T07:44:16.184Z,1.32
2023-01-17T07:47:22.988Z,1.33
2023-01-17T07:50:07.230Z,1.38
2023-01-17T07:52:50.693Z,1.42
2023-01-17T07:55:40.734Z,1.47
2023-01-17T07:58:20.054Z,1.53
2023-01-17T08:00:49.545Z,1.54
2023-01-17T08:03:20.922Z,1.57
2023-01-17T08:05:57.069Z,1.62
2023-01-17T08:08:26.608Z,1.69
2023-01-17T08:10:55.277Z,1.76
2023-01-17T08:13:24.723Z,1.81
2023-01-17T08:15:54.570Z,1.87
2023-01-17T08:18:40.875Z,1.93
2023-01-17T08:21:37.190Z,2.00
2023-01-17T08:24:06.482Z,2.09
2023-01-17T08:26:36.221Z,2.18
2023-01-17T08:29:04.315Z,2.23
2023-01-17T08:31:35.770Z,2.29
2023-01-17T08:34:05.857Z,2.33
2023-01-17T08:36:36.689Z,2.34
2023-01-17T08:39:06.066Z,2.36
2023-01-17T08:41:36.793Z,2.39
2023-01-17T08:44:07.164Z,2.43
2023-01-17T08:46:42.535Z,2.46
2023-01-17T08:49:13.231Z,2.48
2023-01-17T08:51:42.696Z,2.48
2023-01-17T08:54:12.565Z,2.51
2023-01-17T08:56:40.405Z,2.52
2023-01-17T08:59:12.697Z,2.56
2023-01-17T09:01:48.016Z,2.58
2023-01-17T09:04:18.425Z,2.59
2023-01-17T09:06:48.241Z,2.62
2023-01-17T09:09:17.632Z,2.66
2023-01-17T09:11:45.152Z,2.69
2023-01-17T09:14:13.772Z,2.69
2023-01-17T09:16:42.812Z,2.72
2023-01-17T09:19:11.098Z,2.73
2023-01-17T09:21:40.277Z,2.75
2023-01-17T09:24:12.490Z,2.80
2023-01-17T09:26:44.623Z,2.82
2023-01-17T09:29:17.699Z,2.84
2023-01-17T09:31:49.173Z,2.86
2023-01-17T09:34:18.574Z,2.85
2023-01-17T09:36:47.503Z,2.86
2023-01-17T09:39:21.922Z,2.86
2023-01-17T09:42:05.574Z,2.89
2023-01-17T09:45:01.144Z,2.90
2023-01-17T09:47:49.080Z,2.90
2023-01-17T09:50:44.109Z,2.91
2023-01-17T09:53:18.273Z,2.89
2023-01-17T09:55:58.633Z,2.89
2023-01-17T09:58:33.140Z,2.93
2023-01-17T10:01:23.181Z,2.96
2023-01-17T10:04:42.406Z,2.99
2023-01-17T10:07:38.533Z,3.01
2023-01-17T10:10:33.090Z,3.02
2023-01-17T10:13:28.256Z,3.04
2023-01-17T10:16:30.292Z,3.07
2023-01-17T10:19:28.814Z,3.08
2023-01-17T10:22:10.673Z,3.07
2023-01-17T10:24:59.556Z,3.06
2023-01-17T10:28:00.579Z,3.06
2023-01-17T10:30:35.927Z,3.05
2023-01-17T10:33:16.566Z,3.08
2023-01-17T10:35:54.667Z,3.08
2023-01-17T10:38:29.088Z,3.12
2023-01-17T10:41:06.758Z,3.10
2023-01-17T10:43:52.752Z,3.11
2023-01-17T10:46:28.787Z,3.13
2023-01-17T10:48:58.324Z,3.13
2023-01-17T10:51:50.890Z,3.14
2023-01-17T10:54:36.406Z,3.14
2023-01-17T10:57:04.865Z,3.14
2023-01-17T10:59:38.134Z,3.15
2023-01-17T11:02:23.780Z,3.16
2023-01-17T11:04:54.875Z,3.19
2023-01-17T11:07:23.945Z,3.20
2023-01-17T11:09:54.514Z,3.22
2023-01-17T11:12:30.314Z,3.19
2023-01-17T11:15:00.009Z,3.20
2023-01-17T11:17:28.414Z,3.22
2023-01-17T11:20:13.245Z,3.23
2023-01-17T11:22:48.631Z,3.26
2023-01-17T11:25:24.269Z,3.27
2023-01-17T11:28:01.452Z,3.26
2023-01-17T11:30:29.212Z,3.24
2023-01-17T11:33:05.919Z,3.28
2023-01-17T11:35:41.087Z,3.30
2023-01-17T11:38:20.533Z,3.30
2023-01-17T11:40:50.596Z,3.31
2023-01-17T11:43:25.373Z,3.33
2023-01-17T11:46:02.179Z,3.31
2023-01-17T11:48:39.730Z,3.26
2023-01-17T11:51:21.520Z,3.27
2023-01-17T11:53:49.773Z,3.26
2023-01-17T11:56:29.090Z,3.24
2023-01-17T11:59:40.080Z,3.26
2023-01-17T12:02:44.352Z,3.26
2023-01-17T12:05:23.642Z,3.25
2023-01-17T12:08:24.905Z,3.28
2023-01-17T12:11:16.831Z,3.29
2023-01-17T12:14:21.146Z,3.29
2023-01-17T12:17:02.123Z,3.27
2023-01-17T12:24:14.584Z,3.25
2023-01-17T12:27:14.665Z,3.27
2023-01-17T12:29:52.546Z,3.26
2023-01-17T12:33:11.479Z,3.26
2023-01-17T12:35:45.408Z,3.27
2023-01-17T12:38:31.809Z,3.27
2023-01-17T12:41:31.265Z,3.31
2023-01-17T12:44:02.627Z,3.30
2023-01-17T12:46:59.317Z,3.30
2023-01-17T12:49:50.495Z,3.30
2023-01-17T12:52:27.285Z,3.33
2023-01-17T12:55:06.048Z,3.34
2023-01-17T12:57:41.754Z,3.36
2023-01-17T13:00:11.612Z,3.38
2023-01-17T13:02:55.037Z,3.41
2023-01-17T13:05:29.855Z,3.47
2023-01-17T13:08:41.055Z,3.56
2023-01-17T13:11:27.680Z,3.73
2023-01-17T13:13:57.673Z,4.03
2023-01-17T13:16:29.202Z,4.50
2023-01-17T13:19:04.166Z,5.15
2023-01-17T13:21:36.248Z,5.75
2023-01-17T13:24:07.399Z,6.17
2023-01-17T13:27:00.214Z,6.22
2023-01-17T13:29:57.689Z,6.32
2023-01-17T13:32:44.218Z,6.37
2023-01-17T13:35:48.322Z,6.24
2023-01-17T13:38:34.304Z,5.96
2023-01-17T13:41:30.244Z,5.76
2023-01-17T13:44:18.801Z,5.40
2023-01-17T13:47:01.097Z,5.15
2023-01-17T13:49:31.393Z,4.99
2023-01-17T13:52:11.876Z,4.84
2023-01-17T13:54:51.052Z,4.68
2023-01-17T13:57:46.307Z,4.51
2023-01-17T14:01:11.676Z,4.36
2023-01-17T14:03:57.032Z,4.22
2023-01-17T14:11:18.586Z,4.04
2023-01-17T14:14:56.746Z,3.96
2023-01-17T14:17:49.721Z,3.92
2023-01-17T14:20:55.201Z,3.89
2023-01-17T14:23:36.086Z,3.82
2023-01-17T14:26:44.276Z,3.77
2023-01-17T14:30:16.349Z,3.71
2023-01-17T14:33:03.742Z,3.64
2023-01-17T14:35:37.536Z,3.58
2023-01-17T14:38:18.515Z,3.52
2023-01-17T14:41:11.495Z,3.47
2023-01-17T14:43:43.294Z,3.40
2023-01-17T14:46:26.777Z,3.33
2023-01-17T14:49:06.710Z,3.27
2023-01-17T14:51:35.223Z,3.23
2023-01-17T14:54:17.112Z,3.17
2023-01-17T14:56:44.858Z,3.11
2023-01-17T14:59:16.938Z,3.05
2023-01-17T15:02:07.172Z,3.00
2023-01-17T15:04:39.030Z,2.93
2023-01-17T15:07:16.140Z,2.90
2023-01-17T15:09:46.789Z,2.87
2023-01-17T15:12:17.392Z,2.83
2023-01-17T15:14:46.260Z,2.79
2023-01-17T15:17:29.151Z,2.73
2023-01-17T15:23:08.183Z,2.67
2023-01-17T15:25:36.548Z,2.65
2023-01-17T15:28:05.163Z,2.64
2023-01-17T15:30:32.324Z,2.60
2023-01-17T15:32:59.470Z,2.56
2023-01-17T15:35:28.101Z,2.54
2023-01-17T15:37:57.874Z,2.51
2023-01-17T15:40:27.606Z,2.50
2023-01-17T15:43:00.402Z,2.45
2023-01-17T15:45:32.561Z,2.41
2023-01-17T15:48:36.121Z,2.37
2023-01-17T15:51:04.342Z,2.32
2023-01-17T15:53:39.161Z,2.28
2023-01-17T15:56:31.470Z,2.24
2023-01-17T15:59:26.808Z,2.21
2023-01-17T16:01:58.201Z,2.18
2023-01-17T16:04:34.005Z,2.17
2023-01-17T16:07:24.600Z,2.13
2023-01-17T16:09:52.048Z,2.12
2023-01-17T16:12:19.417Z,2.09
2023-01-17T16:15:02.776Z,2.07
2023-01-17T16:17:33.960Z,2.03
2023-01-17T16:20:01.637Z,2.02
2023-01-17T16:22:29.812Z,2.03
2023-01-17T16:25:01.595Z,2.02
2023-01-17T16:27:29.728Z,2.02
2023-01-17T16:29:57.155Z,1.99
2023-01-17T16:32:25.068Z,1.95
2023-01-17T16:34:55.001Z,1.92
2023-01-17T16:37:22.597Z,1.90
2023-01-17T16:39:50.817Z,1.89
2023-01-17T16:42:18.139Z,1.88
2023-01-17T16:44:45.790Z,1.87
2023-01-17T16:47:16.251Z,1.85
2023-01-17T16:49:43.448Z,1.82
2023-01-17T16:52:10.547Z,1.76
2023-01-17T16:54:37.523Z,1.75
2023-01-17T16:57:04.483Z,1.75
2023-01-17T16:59:42.530Z,1.73
2023-01-17T17:02:14.807Z,1.71
2023-01-17T17:04:42.380Z,1.66
2023-01-17T17:07:09.851Z,1.60
2023-01-17T17:09:37.239Z,1.55
2023-01-17T17:12:04.673Z,1.48
2023-01-17T17:14:35.372Z,1.43
2023-01-17T17:17:06.600Z,1.40
2023-01-17T17:19:39.070Z,1.38
2023-01-17T17:22:16.494Z,1.36
2023-01-17T17:25:49.553Z,1.35
2023-01-17T17:29:08.536Z,1.32
2023-01-17T17:42:11.859Z,1.27
2023-01-17T17:44:41.130Z,1.28
2023-01-17T17:47:56.188Z,1.27
2023-01-17T17:50:59.579Z,1.25
2023-01-17T17:53:41.083Z,1.21
2023-01-17T17:57:21.399Z,1.18
2023-01-17T17:59:55.701Z,1.12
2023-01-17T18:02:23.146Z,1.10
2023-01-17T18:04:58.247Z,1.08
2023-01-17T19:19:37.516Z,0.41
